sensor_id;sensor_type;location;lat;lon;timestamp;P1;durP1;ratioP1;P2;durP2;ratioP2
8036;SDS011;4061;51.360;7.340;2023-08-06T00:00:58;3.75;;;1.85;;
8036;SDS011;4061;51.360;7.340;2023-08-06T00:03:27;2.40;;;1.55;;
8036;SDS011;4061;51.360;7.340;2023-08-06T00:05:54;2.13;;;1.77;;
8036;SDS011;4061;51.360;7.340;2023-08-06T00:08:21;4.82;;;1.85;;
8036;SDS011;4061;51.360;7.340;2023-08-06T00:10:48;1.65;;;1.55;;
8036;SDS011;4061;51.360;7.340;2023-08-06T00:13:15;4.05;;;1.60;;
8036;SDS011;4061;51.360;7.340;2023-08-06T00:15:42;3.22;;;1.90;;
8036;SDS011;4061;51.360;7.340;2023-08-06T00:18:09;3.38;;;1.95;;
8036;SDS011;4061;51.360;7.340;2023-08-06T00:20:39;7.53;;;1.63;;
8036;SDS011;4061;51.360;7.340;2023-08-06T00:23:06;1.80;;;1.70;;
8036;SDS011;4061;51.360;7.340;2023-08-06T00:25:33;1.73;;;1.63;;
8036;SDS011;4061;51.360;7.340;2023-08-06T00:28:01;6.80;;;1.73;;
8036;SDS011;4061;51.360;7.340;2023-08-06T00:30:28;2.05;;;1.85;;
8036;SDS011;4061;51.360;7.340;2023-08-06T00:32:55;3.63;;;1.50;;
8036;SDS011;4061;51.360;7.340;2023-08-06T00:35:22;1.92;;;1.83;;
8036;SDS011;4061;51.360;7.340;2023-08-06T00:37:50;3.80;;;2.00;;
8036;SDS011;4061;51.360;7.340;2023-08-06T00:40:19;7.65;;;2.13;;
8036;SDS011;4061;51.360;7.340;2023-08-06T00:42:47;6.00;;;2.30;;
8036;SDS011;4061;51.360;7.340;2023-08-06T00:45:14;1.85;;;1.70;;
8036;SDS011;4061;51.360;7.340;2023-08-06T00:47:41;2.05;;;1.67;;
8036;SDS011;4061;51.360;7.340;2023-08-06T00:50:08;2.17;;;2.03;;
8036;SDS011;4061;51.360;7.340;2023-08-06T00:52:36;2.30;;;2.10;;
8036;SDS011;4061;51.360;7.340;2023-08-06T00:55:05;2.00;;;1.67;;
8036;SDS011;4061;51.360;7.340;2023-08-06T00:57:32;5.70;;;1.85;;
8036;SDS011;4061;51.360;7.340;2023-08-06T00:59:59;4.90;;;1.95;;
8036;SDS011;4061;51.360;7.340;2023-08-06T01:02:26;5.32;;;2.10;;
8036;SDS011;4061;51.360;7.340;2023-08-06T01:04:53;5.10;;;2.25;;
8036;SDS011;4061;51.360;7.340;2023-08-06T01:07:29;8.93;;;2.75;;
8036;SDS011;4061;51.360;7.340;2023-08-06T01:10:04;1.98;;;1.88;;
8036;SDS011;4061;51.360;7.340;2023-08-06T01:12:38;1.63;;;1.60;;
8036;SDS011;4061;51.360;7.340;2023-08-06T01:15:11;3.33;;;2.30;;
8036;SDS011;4061;51.360;7.340;2023-08-06T01:17:39;2.58;;;2.28;;
8036;SDS011;4061;51.360;7.340;2023-08-06T01:20:07;2.08;;;1.98;;
8036;SDS011;4061;51.360;7.340;2023-08-06T01:22:36;15.32;;;2.90;;
8036;SDS011;4061;51.360;7.340;2023-08-06T01:25:03;1.77;;;1.67;;
8036;SDS011;4061;51.360;7.340;2023-08-06T01:27:37;8.55;;;2.38;;
8036;SDS011;4061;51.360;7.340;2023-08-06T01:30:06;2.05;;;1.80;;
8036;SDS011;4061;51.360;7.340;2023-08-06T01:32:36;3.90;;;1.60;;
8036;SDS011;4061;51.360;7.340;2023-08-06T01:35:06;3.00;;;1.85;;
8036;SDS011;4061;51.360;7.340;2023-08-06T01:37:33;3.40;;;1.63;;
8036;SDS011;4061;51.360;7.340;2023-08-06T01:40:02;3.33;;;1.90;;
8036;SDS011;4061;51.360;7.340;2023-08-06T01:42:32;4.07;;;2.13;;
8036;SDS011;4061;51.360;7.340;2023-08-06T01:44:59;4.03;;;1.85;;
8036;SDS011;4061;51.360;7.340;2023-08-06T01:47:26;2.85;;;1.98;;
8036;SDS011;4061;51.360;7.340;2023-08-06T01:49:53;2.30;;;1.70;;
8036;SDS011;4061;51.360;7.340;2023-08-06T01:52:20;2.55;;;1.60;;
8036;SDS011;4061;51.360;7.340;2023-08-06T01:54:47;2.25;;;2.05;;
8036;SDS011;4061;51.360;7.340;2023-08-06T01:57:15;2.28;;;1.92;;
8036;SDS011;4061;51.360;7.340;2023-08-06T01:59:42;3.75;;;1.90;;
8036;SDS011;4061;51.360;7.340;2023-08-06T02:02:09;3.42;;;2.10;;
8036;SDS011;4061;51.360;7.340;2023-08-06T02:04:36;1.88;;;1.77;;
8036;SDS011;4061;51.360;7.340;2023-08-06T02:07:04;1.90;;;1.80;;
8036;SDS011;4061;51.360;7.340;2023-08-06T02:09:31;3.05;;;1.98;;
8036;SDS011;4061;51.360;7.340;2023-08-06T02:12:00;2.08;;;1.88;;
8036;SDS011;4061;51.360;7.340;2023-08-06T02:14:28;5.65;;;2.00;;
8036;SDS011;4061;51.360;7.340;2023-08-06T02:16:55;2.80;;;1.73;;
8036;SDS011;4061;51.360;7.340;2023-08-06T02:19:22;2.80;;;2.20;;
8036;SDS011;4061;51.360;7.340;2023-08-06T02:21:50;1.90;;;1.80;;
8036;SDS011;4061;51.360;7.340;2023-08-06T02:24:17;4.78;;;1.85;;
8036;SDS011;4061;51.360;7.340;2023-08-06T02:26:44;2.08;;;1.70;;
8036;SDS011;4061;51.360;7.340;2023-08-06T02:29:11;6.90;;;2.13;;
8036;SDS011;4061;51.360;7.340;2023-08-06T02:31:40;3.25;;;2.10;;
8036;SDS011;4061;51.360;7.340;2023-08-06T02:34:07;1.90;;;1.80;;
8036;SDS011;4061;51.360;7.340;2023-08-06T02:36:34;2.90;;;1.77;;
8036;SDS011;4061;51.360;7.340;2023-08-06T02:39:01;5.18;;;1.77;;
8036;SDS011;4061;51.360;7.340;2023-08-06T02:41:28;1.90;;;1.80;;
8036;SDS011;4061;51.360;7.340;2023-08-06T02:43:55;3.25;;;1.73;;
8036;SDS011;4061;51.360;7.340;2023-08-06T02:46:22;2.45;;;2.03;;
8036;SDS011;4061;51.360;7.340;2023-08-06T02:48:50;2.10;;;1.98;;
8036;SDS011;4061;51.360;7.340;2023-08-06T02:51:17;4.53;;;1.95;;
8036;SDS011;4061;51.360;7.340;2023-08-06T02:53:45;2.05;;;1.85;;
8036;SDS011;4061;51.360;7.340;2023-08-06T02:56:12;2.42;;;2.22;;
8036;SDS011;4061;51.360;7.340;2023-08-06T02:58:39;5.55;;;1.75;;
8036;SDS011;4061;51.360;7.340;2023-08-06T03:01:06;3.85;;;1.92;;
8036;SDS011;4061;51.360;7.340;2023-08-06T03:03:33;4.20;;;1.80;;
8036;SDS011;4061;51.360;7.340;2023-08-06T03:06:02;2.00;;;1.90;;
8036;SDS011;4061;51.360;7.340;2023-08-06T03:08:29;1.90;;;1.80;;
8036;SDS011;4061;51.360;7.340;2023-08-06T03:10:56;3.15;;;1.70;;
8036;SDS011;4061;51.360;7.340;2023-08-06T03:13:23;1.80;;;1.70;;
8036;SDS011;4061;51.360;7.340;2023-08-06T03:15:53;4.13;;;1.80;;
8036;SDS011;4061;51.360;7.340;2023-08-06T03:18:20;3.50;;;1.40;;
8036;SDS011;4061;51.360;7.340;2023-08-06T03:20:47;1.63;;;1.50;;
8036;SDS011;4061;51.360;7.340;2023-08-06T03:23:16;3.13;;;1.40;;
8036;SDS011;4061;51.360;7.340;2023-08-06T03:25:43;1.95;;;1.75;;
8036;SDS011;4061;51.360;7.340;2023-08-06T03:28:10;1.67;;;1.42;;
8036;SDS011;4061;51.360;7.340;2023-08-06T03:30:37;3.30;;;1.50;;
8036;SDS011;4061;51.360;7.340;2023-08-06T03:33:04;3.30;;;1.80;;
8036;SDS011;4061;51.360;7.340;2023-08-06T03:35:31;4.05;;;1.40;;
8036;SDS011;4061;51.360;7.340;2023-08-06T03:37:58;1.92;;;1.60;;
8036;SDS011;4061;51.360;7.340;2023-08-06T03:40:27;1.70;;;1.60;;
8036;SDS011;4061;51.360;7.340;2023-08-06T03:42:54;3.50;;;1.50;;
8036;SDS011;4061;51.360;7.340;2023-08-06T03:45:21;1.88;;;1.48;;
8036;SDS011;4061;51.360;7.340;2023-08-06T03:47:48;3.15;;;1.60;;
8036;SDS011;4061;51.360;7.340;2023-08-06T03:50:15;2.83;;;1.58;;
8036;SDS011;4061;51.360;7.340;2023-08-06T03:52:42;1.63;;;1.52;;
8036;SDS011;4061;51.360;7.340;2023-08-06T03:55:09;2.67;;;1.48;;
8036;SDS011;4061;51.360;7.340;2023-08-06T03:57:37;1.80;;;1.38;;
8036;SDS011;4061;51.360;7.340;2023-08-06T04:00:05;3.05;;;1.60;;
8036;SDS011;4061;51.360;7.340;2023-08-06T04:02:32;1.92;;;1.17;;
8036;SDS011;4061;51.360;7.340;2023-08-06T04:05:00;2.33;;;1.45;;
8036;SDS011;4061;51.360;7.340;2023-08-06T04:07:27;2.75;;;1.58;;
8036;SDS011;4061;51.360;7.340;2023-08-06T04:09:54;1.58;;;1.48;;
8036;SDS011;4061;51.360;7.340;2023-08-06T04:12:22;1.45;;;1.40;;
8036;SDS011;4061;51.360;7.340;2023-08-06T04:14:51;2.00;;;1.90;;
8036;SDS011;4061;51.360;7.340;2023-08-06T04:17:18;1.67;;;1.50;;
8036;SDS011;4061;51.360;7.340;2023-08-06T04:19:46;1.30;;;1.30;;
8036;SDS011;4061;51.360;7.340;2023-08-06T04:22:13;1.48;;;1.38;;
8036;SDS011;4061;51.360;7.340;2023-08-06T04:24:41;2.17;;;1.30;;
8036;SDS011;4061;51.360;7.340;2023-08-06T04:27:08;1.85;;;1.40;;
8036;SDS011;4061;51.360;7.340;2023-08-06T04:29:36;2.10;;;1.95;;
8036;SDS011;4061;51.360;7.340;2023-08-06T04:32:05;1.55;;;1.48;;
8036;SDS011;4061;51.360;7.340;2023-08-06T04:34:32;1.63;;;1.50;;
8036;SDS011;4061;51.360;7.340;2023-08-06T04:37:00;6.18;;;1.52;;
8036;SDS011;4061;51.360;7.340;2023-08-06T04:39:27;1.70;;;1.60;;
8036;SDS011;4061;51.360;7.340;2023-08-06T04:41:55;2.88;;;1.75;;
8036;SDS011;4061;51.360;7.340;2023-08-06T04:44:22;1.70;;;1.60;;
8036;SDS011;4061;51.360;7.340;2023-08-06T04:46:49;4.20;;;1.58;;
8036;SDS011;4061;51.360;7.340;2023-08-06T04:49:18;4.15;;;1.58;;
8036;SDS011;4061;51.360;7.340;2023-08-06T04:51:45;3.13;;;1.85;;
8036;SDS011;4061;51.360;7.340;2023-08-06T04:54:12;3.90;;;1.80;;
8036;SDS011;4061;51.360;7.340;2023-08-06T04:56:39;1.40;;;1.40;;
8036;SDS011;4061;51.360;7.340;2023-08-06T04:59:06;1.42;;;1.40;;
8036;SDS011;4061;51.360;7.340;2023-08-06T05:01:33;1.77;;;1.50;;
8036;SDS011;4061;51.360;7.340;2023-08-06T05:04:00;3.28;;;1.50;;
8036;SDS011;4061;51.360;7.340;2023-08-06T05:06:28;5.70;;;2.30;;
8036;SDS011;4061;51.360;7.340;2023-08-06T05:08:55;1.73;;;1.63;;
8036;SDS011;4061;51.360;7.340;2023-08-06T05:11:22;1.80;;;1.35;;
8036;SDS011;4061;51.360;7.340;2023-08-06T05:13:49;4.28;;;1.70;;
8036;SDS011;4061;51.360;7.340;2023-08-06T05:16:16;1.67;;;1.58;;
8036;SDS011;4061;51.360;7.340;2023-08-06T05:18:43;2.22;;;1.30;;
8036;SDS011;4061;51.360;7.340;2023-08-06T05:21:11;3.15;;;2.10;;
8036;SDS011;4061;51.360;7.340;2023-08-06T05:23:39;2.10;;;1.90;;
8036;SDS011;4061;51.360;7.340;2023-08-06T05:26:06;2.63;;;1.70;;
8036;SDS011;4061;51.360;7.340;2023-08-06T05:28:33;3.38;;;1.52;;
8036;SDS011;4061;51.360;7.340;2023-08-06T05:31:02;2.40;;;1.73;;
8036;SDS011;4061;51.360;7.340;2023-08-06T05:33:30;3.85;;;1.90;;
8036;SDS011;4061;51.360;7.340;2023-08-06T05:35:57;2.35;;;1.83;;
8036;SDS011;4061;51.360;7.340;2023-08-06T05:38:24;3.17;;;1.52;;
8036;SDS011;4061;51.360;7.340;2023-08-06T05:40:52;2.92;;;1.20;;
8036;SDS011;4061;51.360;7.340;2023-08-06T05:43:20;3.08;;;1.08;;
8036;SDS011;4061;51.360;7.340;2023-08-06T05:45:48;5.35;;;1.23;;
8036;SDS011;4061;51.360;7.340;2023-08-06T05:48:16;3.20;;;1.30;;
8036;SDS011;4061;51.360;7.340;2023-08-06T05:50:43;1.25;;;0.98;;
8036;SDS011;4061;51.360;7.340;2023-08-06T05:53:10;2.55;;;1.17;;
8036;SDS011;4061;51.360;7.340;2023-08-06T05:55:38;1.30;;;1.20;;
8036;SDS011;4061;51.360;7.340;2023-08-06T05:58:06;1.10;;;1.08;;
8036;SDS011;4061;51.360;7.340;2023-08-06T06:00:33;1.33;;;1.02;;
8036;SDS011;4061;51.360;7.340;2023-08-06T06:03:01;0.95;;;0.90;;
8036;SDS011;4061;51.360;7.340;2023-08-06T06:05:28;1.17;;;1.05;;
8036;SDS011;4061;51.360;7.340;2023-08-06T06:07:55;2.28;;;1.13;;
8036;SDS011;4061;51.360;7.340;2023-08-06T06:10:22;1.25;;;0.80;;
8036;SDS011;4061;51.360;7.340;2023-08-06T06:12:49;3.92;;;1.00;;
8036;SDS011;4061;51.360;7.340;2023-08-06T06:15:17;5.47;;;0.82;;
8036;SDS011;4061;51.360;7.340;2023-08-06T06:17:44;0.98;;;0.77;;
8036;SDS011;4061;51.360;7.340;2023-08-06T06:20:11;0.70;;;0.70;;
8036;SDS011;4061;51.360;7.340;2023-08-06T06:22:38;2.85;;;1.20;;
8036;SDS011;4061;51.360;7.340;2023-08-06T06:25:06;1.63;;;1.02;;
8036;SDS011;4061;51.360;7.340;2023-08-06T06:27:33;2.05;;;1.20;;
8036;SDS011;4061;51.360;7.340;2023-08-06T06:30:00;2.67;;;0.90;;
8036;SDS011;4061;51.360;7.340;2023-08-06T06:32:29;2.05;;;1.00;;
8036;SDS011;4061;51.360;7.340;2023-08-06T06:34:56;4.57;;;0.90;;
8036;SDS011;4061;51.360;7.340;2023-08-06T06:37:23;1.08;;;1.02;;
8036;SDS011;4061;51.360;7.340;2023-08-06T06:39:50;0.82;;;0.82;;
8036;SDS011;4061;51.360;7.340;2023-08-06T06:42:17;1.98;;;0.80;;
8036;SDS011;4061;51.360;7.340;2023-08-06T06:44:44;0.95;;;0.65;;
8036;SDS011;4061;51.360;7.340;2023-08-06T06:47:11;2.10;;;1.08;;
8036;SDS011;4061;51.360;7.340;2023-08-06T06:49:40;0.60;;;0.60;;
8036;SDS011;4061;51.360;7.340;2023-08-06T06:52:07;1.40;;;0.90;;
8036;SDS011;4061;51.360;7.340;2023-08-06T06:54:34;0.57;;;0.57;;
8036;SDS011;4061;51.360;7.340;2023-08-06T06:57:01;0.90;;;0.80;;
8036;SDS011;4061;51.360;7.340;2023-08-06T06:59:28;2.08;;;0.88;;
8036;SDS011;4061;51.360;7.340;2023-08-06T07:01:55;0.65;;;0.65;;
8036;SDS011;4061;51.360;7.340;2023-08-06T07:04:22;0.73;;;0.73;;
8036;SDS011;4061;51.360;7.340;2023-08-06T07:06:51;1.40;;;0.60;;
8036;SDS011;4061;51.360;7.340;2023-08-06T07:09:18;0.50;;;0.50;;
8036;SDS011;4061;51.360;7.340;2023-08-06T07:11:45;0.35;;;0.35;;
8036;SDS011;4061;51.360;7.340;2023-08-06T07:14:12;2.85;;;0.80;;
8036;SDS011;4061;51.360;7.340;2023-08-06T07:16:39;0.35;;;0.35;;
8036;SDS011;4061;51.360;7.340;2023-08-06T07:19:07;0.60;;;0.60;;
8036;SDS011;4061;51.360;7.340;2023-08-06T07:21:34;0.88;;;0.52;;
8036;SDS011;4061;51.360;7.340;2023-08-06T07:24:02;0.40;;;0.40;;
8036;SDS011;4061;51.360;7.340;2023-08-06T07:26:29;0.60;;;0.60;;
8036;SDS011;4061;51.360;7.340;2023-08-06T07:28:56;0.80;;;0.35;;
8036;SDS011;4061;51.360;7.340;2023-08-06T07:31:23;0.43;;;0.43;;
8036;SDS011;4061;51.360;7.340;2023-08-06T07:33:50;0.55;;;0.30;;
8036;SDS011;4061;51.360;7.340;2023-08-06T07:36:17;0.45;;;0.38;;
8036;SDS011;4061;51.360;7.340;2023-08-06T07:38:44;0.52;;;0.40;;
8036;SDS011;4061;51.360;7.340;2023-08-06T07:41:15;0.65;;;0.50;;
8036;SDS011;4061;51.360;7.340;2023-08-06T07:43:42;0.30;;;0.30;;
8036;SDS011;4061;51.360;7.340;2023-08-06T07:46:09;0.80;;;0.25;;
8036;SDS011;4061;51.360;7.340;2023-08-06T07:48:38;1.45;;;0.40;;
8036;SDS011;4061;51.360;7.340;2023-08-06T07:51:05;0.30;;;0.28;;
8036;SDS011;4061;51.360;7.340;2023-08-06T07:53:32;0.28;;;0.28;;
8036;SDS011;4061;51.360;7.340;2023-08-06T07:55:59;0.30;;;0.30;;
8036;SDS011;4061;51.360;7.340;2023-08-06T07:58:28;1.63;;;0.40;;
8036;SDS011;4061;51.360;7.340;2023-08-06T08:00:56;2.05;;;0.30;;
8036;SDS011;4061;51.360;7.340;2023-08-06T08:03:23;0.28;;;0.28;;
8036;SDS011;4061;51.360;7.340;2023-08-06T08:05:53;0.68;;;0.30;;
8036;SDS011;4061;51.360;7.340;2023-08-06T08:08:22;0.47;;;0.47;;
8036;SDS011;4061;51.360;7.340;2023-08-06T08:10:49;0.10;;;0.10;;
8036;SDS011;4061;51.360;7.340;2023-08-06T08:13:16;0.20;;;0.20;;
8036;SDS011;4061;51.360;7.340;2023-08-06T08:15:45;1.85;;;0.45;;
8036;SDS011;4061;51.360;7.340;2023-08-06T08:18:12;0.50;;;0.50;;
8036;SDS011;4061;51.360;7.340;2023-08-06T08:20:39;0.50;;;0.50;;
8036;SDS011;4061;51.360;7.340;2023-08-06T08:23:06;3.33;;;0.60;;
8036;SDS011;4061;51.360;7.340;2023-08-06T08:25:33;0.40;;;0.40;;
8036;SDS011;4061;51.360;7.340;2023-08-06T08:28:00;0.40;;;0.40;;
8036;SDS011;4061;51.360;7.340;2023-08-06T08:30:27;0.73;;;0.50;;
8036;SDS011;4061;51.360;7.340;2023-08-06T08:32:55;0.40;;;0.40;;
8036;SDS011;4061;51.360;7.340;2023-08-06T08:35:22;0.50;;;0.50;;
8036;SDS011;4061;51.360;7.340;2023-08-06T08:37:50;0.90;;;0.70;;
8036;SDS011;4061;51.360;7.340;2023-08-06T08:40:17;1.85;;;0.47;;
8036;SDS011;4061;51.360;7.340;2023-08-06T08:42:44;0.50;;;0.50;;
8036;SDS011;4061;51.360;7.340;2023-08-06T08:45:12;0.85;;;0.40;;
8036;SDS011;4061;51.360;7.340;2023-08-06T08:47:39;0.68;;;0.55;;
8036;SDS011;4061;51.360;7.340;2023-08-06T08:50:09;2.08;;;0.60;;
8036;SDS011;4061;51.360;7.340;2023-08-06T08:52:38;1.10;;;0.30;;
8036;SDS011;4061;51.360;7.340;2023-08-06T08:55:06;0.35;;;0.35;;
8036;SDS011;4061;51.360;7.340;2023-08-06T08:57:33;0.65;;;0.50;;
8036;SDS011;4061;51.360;7.340;2023-08-06T09:00:00;2.67;;;0.60;;
8036;SDS011;4061;51.360;7.340;2023-08-06T09:02:28;0.40;;;0.32;;
8036;SDS011;4061;51.360;7.340;2023-08-06T09:04:55;0.98;;;0.52;;
8036;SDS011;4061;51.360;7.340;2023-08-06T09:07:26;0.60;;;0.60;;
8036;SDS011;4061;51.360;7.340;2023-08-06T09:09:53;1.35;;;0.57;;
8036;SDS011;4061;51.360;7.340;2023-08-06T09:12:22;0.60;;;0.60;;
8036;SDS011;4061;51.360;7.340;2023-08-06T09:14:49;0.60;;;0.60;;
8036;SDS011;4061;51.360;7.340;2023-08-06T09:17:16;0.60;;;0.60;;
8036;SDS011;4061;51.360;7.340;2023-08-06T09:19:44;3.17;;;0.88;;
8036;SDS011;4061;51.360;7.340;2023-08-06T09:22:14;0.40;;;0.38;;
8036;SDS011;4061;51.360;7.340;2023-08-06T09:24:43;1.55;;;0.77;;
8036;SDS011;4061;51.360;7.340;2023-08-06T09:27:10;0.70;;;0.70;;
8036;SDS011;4061;51.360;7.340;2023-08-06T09:29:39;6.80;;;1.05;;
8036;SDS011;4061;51.360;7.340;2023-08-06T09:32:07;0.50;;;0.50;;
8036;SDS011;4061;51.360;7.340;2023-08-06T09:34:34;2.13;;;0.65;;
8036;SDS011;4061;51.360;7.340;2023-08-06T09:37:01;0.50;;;0.50;;
8036;SDS011;4061;51.360;7.340;2023-08-06T09:39:30;0.50;;;0.50;;
8036;SDS011;4061;51.360;7.340;2023-08-06T09:41:59;1.55;;;0.80;;
8036;SDS011;4061;51.360;7.340;2023-08-06T09:44:27;0.60;;;0.50;;
8036;SDS011;4061;51.360;7.340;2023-08-06T09:46:55;0.55;;;0.55;;
8036;SDS011;4061;51.360;7.340;2023-08-06T09:49:25;0.55;;;0.52;;
8036;SDS011;4061;51.360;7.340;2023-08-06T09:51:53;1.17;;;0.65;;
8036;SDS011;4061;51.360;7.340;2023-08-06T09:54:22;0.73;;;0.65;;
8036;SDS011;4061;51.360;7.340;2023-08-06T09:56:49;0.88;;;0.68;;
8036;SDS011;4061;51.360;7.340;2023-08-06T09:59:18;0.73;;;0.70;;
8036;SDS011;4061;51.360;7.340;2023-08-06T10:01:45;2.28;;;0.60;;
8036;SDS011;4061;51.360;7.340;2023-08-06T10:04:13;1.95;;;0.50;;
8036;SDS011;4061;51.360;7.340;2023-08-06T10:06:41;2.25;;;0.63;;
8036;SDS011;4061;51.360;7.340;2023-08-06T10:09:09;0.70;;;0.60;;
8036;SDS011;4061;51.360;7.340;2023-08-06T10:11:36;3.13;;;1.08;;
8036;SDS011;4061;51.360;7.340;2023-08-06T10:14:04;4.00;;;1.00;;
8036;SDS011;4061;51.360;7.340;2023-08-06T10:16:34;2.70;;;0.60;;
8036;SDS011;4061;51.360;7.340;2023-08-06T10:19:03;2.08;;;0.70;;
8036;SDS011;4061;51.360;7.340;2023-08-06T10:21:31;2.28;;;0.93;;
8036;SDS011;4061;51.360;7.340;2023-08-06T10:23:58;1.25;;;0.70;;
8036;SDS011;4061;51.360;7.340;2023-08-06T10:26:26;4.68;;;0.80;;
8036;SDS011;4061;51.360;7.340;2023-08-06T10:28:53;0.70;;;0.70;;
8036;SDS011;4061;51.360;7.340;2023-08-06T10:31:36;4.00;;;1.10;;
8036;SDS011;4061;51.360;7.340;2023-08-06T10:34:19;1.05;;;1.05;;
8036;SDS011;4061;51.360;7.340;2023-08-06T10:36:46;0.98;;;0.90;;
8036;SDS011;4061;51.360;7.340;2023-08-06T10:39:13;1.17;;;0.85;;
8036;SDS011;4061;51.360;7.340;2023-08-06T10:41:41;2.90;;;0.75;;
8036;SDS011;4061;51.360;7.340;2023-08-06T10:44:10;1.65;;;0.90;;
8036;SDS011;4061;51.360;7.340;2023-08-06T10:46:38;0.80;;;0.73;;
8036;SDS011;4061;51.360;7.340;2023-08-06T10:49:05;1.48;;;1.00;;
8036;SDS011;4061;51.360;7.340;2023-08-06T10:51:33;3.30;;;1.08;;
8036;SDS011;4061;51.360;7.340;2023-08-06T10:54:00;1.95;;;1.30;;
8036;SDS011;4061;51.360;7.340;2023-08-06T10:56:29;0.93;;;0.93;;
8036;SDS011;4061;51.360;7.340;2023-08-06T10:58:56;1.90;;;0.90;;
8036;SDS011;4061;51.360;7.340;2023-08-06T11:01:24;2.13;;;0.80;;
8036;SDS011;4061;51.360;7.340;2023-08-06T11:03:52;0.82;;;0.82;;
8036;SDS011;4061;51.360;7.340;2023-08-06T11:06:20;1.10;;;1.10;;
8036;SDS011;4061;51.360;7.340;2023-08-06T11:08:50;0.82;;;0.82;;
8036;SDS011;4061;51.360;7.340;2023-08-06T11:11:18;1.40;;;1.05;;
8036;SDS011;4061;51.360;7.340;2023-08-06T11:13:45;0.80;;;0.80;;
8036;SDS011;4061;51.360;7.340;2023-08-06T11:16:13;1.30;;;1.10;;
8036;SDS011;4061;51.360;7.340;2023-08-06T11:18:40;4.78;;;1.13;;
8036;SDS011;4061;51.360;7.340;2023-08-06T11:21:08;2.55;;;0.70;;
8036;SDS011;4061;51.360;7.340;2023-08-06T11:23:36;2.35;;;0.95;;
8036;SDS011;4061;51.360;7.340;2023-08-06T11:26:03;1.50;;;1.00;;
8036;SDS011;4061;51.360;7.340;2023-08-06T11:28:31;1.33;;;1.17;;
8036;SDS011;4061;51.360;7.340;2023-08-06T11:30:58;1.98;;;1.15;;
8036;SDS011;4061;51.360;7.340;2023-08-06T11:33:27;1.02;;;0.85;;
8036;SDS011;4061;51.360;7.340;2023-08-06T11:35:54;1.17;;;0.93;;
8036;SDS011;4061;51.360;7.340;2023-08-06T11:38:25;1.02;;;1.02;;
8036;SDS011;4061;51.360;7.340;2023-08-06T11:40:53;2.10;;;0.82;;
8036;SDS011;4061;51.360;7.340;2023-08-06T11:43:20;1.05;;;1.05;;
8036;SDS011;4061;51.360;7.340;2023-08-06T11:45:48;0.80;;;0.80;;
8036;SDS011;4061;51.360;7.340;2023-08-06T11:48:15;0.80;;;0.80;;
8036;SDS011;4061;51.360;7.340;2023-08-06T11:50:43;2.20;;;1.17;;
8036;SDS011;4061;51.360;7.340;2023-08-06T11:53:11;4.65;;;1.58;;
8036;SDS011;4061;51.360;7.340;2023-08-06T11:55:40;2.28;;;2.10;;
8036;SDS011;4061;51.360;7.340;2023-08-06T11:58:08;4.53;;;1.80;;
8036;SDS011;4061;51.360;7.340;2023-08-06T12:00:36;0.90;;;0.90;;
8036;SDS011;4061;51.360;7.340;2023-08-06T12:03:04;1.30;;;1.20;;
8036;SDS011;4061;51.360;7.340;2023-08-06T12:05:31;0.65;;;0.65;;
8036;SDS011;4061;51.360;7.340;2023-08-06T12:07:59;0.45;;;0.45;;
8036;SDS011;4061;51.360;7.340;2023-08-06T12:10:27;2.08;;;0.50;;
8036;SDS011;4061;51.360;7.340;2023-08-06T12:12:56;0.40;;;0.40;;
8036;SDS011;4061;51.360;7.340;2023-08-06T12:15:23;0.93;;;0.30;;
8036;SDS011;4061;51.360;7.340;2023-08-06T12:17:50;0.95;;;0.30;;
8036;SDS011;4061;51.360;7.340;2023-08-06T12:20:17;0.20;;;0.20;;
8036;SDS011;4061;51.360;7.340;2023-08-06T12:22:44;0.30;;;0.30;;
8036;SDS011;4061;51.360;7.340;2023-08-06T12:25:12;0.38;;;0.20;;
8036;SDS011;4061;51.360;7.340;2023-08-06T12:27:39;0.47;;;0.30;;
8036;SDS011;4061;51.360;7.340;2023-08-06T12:30:08;0.20;;;0.20;;
8036;SDS011;4061;51.360;7.340;2023-08-06T12:32:35;0.10;;;0.10;;
8036;SDS011;4061;51.360;7.340;2023-08-06T12:35:02;0.10;;;0.10;;
8036;SDS011;4061;51.360;7.340;2023-08-06T12:37:30;0.30;;;0.30;;
8036;SDS011;4061;51.360;7.340;2023-08-06T12:39:57;0.15;;;0.15;;
8036;SDS011;4061;51.360;7.340;2023-08-06T12:42:24;0.22;;;0.22;;
8036;SDS011;4061;51.360;7.340;2023-08-06T12:44:51;2.10;;;0.30;;
8036;SDS011;4061;51.360;7.340;2023-08-06T12:47:20;0.20;;;0.20;;
8036;SDS011;4061;51.360;7.340;2023-08-06T12:49:47;0.15;;;0.15;;
8036;SDS011;4061;51.360;7.340;2023-08-06T12:52:14;1.65;;;0.40;;
8036;SDS011;4061;51.360;7.340;2023-08-06T12:54:42;0.52;;;0.32;;
8036;SDS011;4061;51.360;7.340;2023-08-06T12:57:11;0.22;;;0.22;;
8036;SDS011;4061;51.360;7.340;2023-08-06T12:59:38;4.65;;;0.40;;
8036;SDS011;4061;51.360;7.340;2023-08-06T13:02:05;0.20;;;0.20;;
8036;SDS011;4061;51.360;7.340;2023-08-06T13:04:33;1.75;;;0.22;;
8036;SDS011;4061;51.360;7.340;2023-08-06T13:07:00;0.30;;;0.30;;
8036;SDS011;4061;51.360;7.340;2023-08-06T13:09:27;0.25;;;0.25;;
8036;SDS011;4061;51.360;7.340;2023-08-06T13:11:55;0.40;;;0.40;;
8036;SDS011;4061;51.360;7.340;2023-08-06T13:14:23;0.30;;;0.30;;
8036;SDS011;4061;51.360;7.340;2023-08-06T13:16:50;0.43;;;0.43;;
8036;SDS011;4061;51.360;7.340;2023-08-06T13:19:18;0.32;;;0.32;;
8036;SDS011;4061;51.360;7.340;2023-08-06T13:22:02;1.02;;;0.60;;
8036;SDS011;4061;51.360;7.340;2023-08-06T13:24:31;0.75;;;0.68;;
8036;SDS011;4061;51.360;7.340;2023-08-06T13:26:59;0.47;;;0.47;;
8036;SDS011;4061;51.360;7.340;2023-08-06T13:29:26;0.60;;;0.60;;
8036;SDS011;4061;51.360;7.340;2023-08-06T13:31:53;0.68;;;0.68;;
8036;SDS011;4061;51.360;7.340;2023-08-06T13:34:21;0.60;;;0.60;;
8036;SDS011;4061;51.360;7.340;2023-08-06T13:36:48;2.63;;;0.90;;
8036;SDS011;4061;51.360;7.340;2023-08-06T13:39:17;0.90;;;0.90;;
8036;SDS011;4061;51.360;7.340;2023-08-06T13:41:44;0.93;;;0.90;;
8036;SDS011;4061;51.360;7.340;2023-08-06T13:44:11;0.73;;;0.73;;
8036;SDS011;4061;51.360;7.340;2023-08-06T13:46:40;0.50;;;0.50;;
8036;SDS011;4061;51.360;7.340;2023-08-06T13:49:07;1.10;;;1.00;;
8036;SDS011;4061;51.360;7.340;2023-08-06T13:51:34;0.75;;;0.75;;
8036;SDS011;4061;51.360;7.340;2023-08-06T13:54:01;1.83;;;0.93;;
8036;SDS011;4061;51.360;7.340;2023-08-06T13:56:30;1.17;;;0.95;;
8036;SDS011;4061;51.360;7.340;2023-08-06T13:58:57;0.82;;;0.80;;
8036;SDS011;4061;51.360;7.340;2023-08-06T14:01:24;1.48;;;1.27;;
8036;SDS011;4061;51.360;7.340;2023-08-06T14:03:51;1.05;;;0.98;;
8036;SDS011;4061;51.360;7.340;2023-08-06T14:06:18;1.17;;;0.80;;
8036;SDS011;4061;51.360;7.340;2023-08-06T14:08:45;1.20;;;0.80;;
8036;SDS011;4061;51.360;7.340;2023-08-06T14:11:12;2.38;;;0.90;;
8036;SDS011;4061;51.360;7.340;2023-08-06T14:13:41;0.73;;;0.73;;
8036;SDS011;4061;51.360;7.340;2023-08-06T14:16:08;3.25;;;0.90;;
8036;SDS011;4061;51.360;7.340;2023-08-06T14:18:35;0.88;;;0.88;;
8036;SDS011;4061;51.360;7.340;2023-08-06T14:21:03;0.80;;;0.80;;
8036;SDS011;4061;51.360;7.340;2023-08-06T14:23:30;1.17;;;1.08;;
8036;SDS011;4061;51.360;7.340;2023-08-06T14:25:57;1.15;;;1.13;;
8036;SDS011;4061;51.360;7.340;2023-08-06T14:28:24;6.57;;;0.88;;
8036;SDS011;4061;51.360;7.340;2023-08-06T14:30:52;2.13;;;0.93;;
8036;SDS011;4061;51.360;7.340;2023-08-06T14:33:20;0.98;;;0.98;;
8036;SDS011;4061;51.360;7.340;2023-08-06T14:35:47;0.80;;;0.80;;
8036;SDS011;4061;51.360;7.340;2023-08-06T14:38:14;1.45;;;1.25;;
8036;SDS011;4061;51.360;7.340;2023-08-06T14:40:43;1.10;;;1.10;;
8036;SDS011;4061;51.360;7.340;2023-08-06T14:43:10;1.00;;;1.00;;
8036;SDS011;4061;51.360;7.340;2023-08-06T14:45:37;1.55;;;1.30;;
8036;SDS011;4061;51.360;7.340;2023-08-06T14:48:06;2.15;;;1.60;;
8036;SDS011;4061;51.360;7.340;2023-08-06T14:50:33;1.75;;;1.10;;
8036;SDS011;4061;51.360;7.340;2023-08-06T14:53:00;0.95;;;0.95;;
8036;SDS011;4061;51.360;7.340;2023-08-06T14:55:27;1.48;;;1.15;;
8036;SDS011;4061;51.360;7.340;2023-08-06T14:57:54;1.35;;;1.17;;
8036;SDS011;4061;51.360;7.340;2023-08-06T15:00:21;1.88;;;1.50;;
8036;SDS011;4061;51.360;7.340;2023-08-06T15:02:48;2.03;;;1.30;;
8036;SDS011;4061;51.360;7.340;2023-08-06T15:05:17;2.03;;;1.17;;
8036;SDS011;4061;51.360;7.340;2023-08-06T15:07:44;1.67;;;1.52;;
8036;SDS011;4061;51.360;7.340;2023-08-06T15:10:14;1.38;;;1.27;;
8036;SDS011;4061;51.360;7.340;2023-08-06T15:12:41;3.95;;;1.58;;
8036;SDS011;4061;51.360;7.340;2023-08-06T15:15:09;2.53;;;1.70;;
8036;SDS011;4061;51.360;7.340;2023-08-06T15:17:36;1.38;;;1.38;;